sensor_id;sensor_type;location;lat;lon;timestamp;P1;durP1;ratioP1;P2;durP2;ratioP2
15393;SDS011;7795;47.986;11.868;2023-04-09T00:01:55;7.20;;;6.50;;
15393;SDS011;7795;47.986;11.868;2023-04-09T00:04:22;7.40;;;6.60;;
15393;SDS011;7795;47.986;11.868;2023-04-09T00:06:47;6.83;;;6.13;;
15393;SDS011;7795;47.986;11.868;2023-04-09T00:09:13;5.93;;;5.43;;
15393;SDS011;7795;47.986;11.868;2023-04-09T00:11:39;5.40;;;4.90;;
15393;SDS011;7795;47.986;11.868;2023-04-09T00:14:05;5.03;;;4.60;;
15393;SDS011;7795;47.986;11.868;2023-04-09T00:16:31;4.97;;;4.47;;
15393;SDS011;7795;47.986;11.868;2023-04-09T00:18:57;5.00;;;4.53;;
15393;SDS011;7795;47.986;11.868;2023-04-09T00:21:24;5.63;;;5.13;;
15393;SDS011;7795;47.986;11.868;2023-04-09T00:23:51;5.97;;;5.43;;
15393;SDS011;7795;47.986;11.868;2023-04-09T00:26:16;5.60;;;5.03;;
15393;SDS011;7795;47.986;11.868;2023-04-09T00:28:42;5.63;;;5.13;;
15393;SDS011;7795;47.986;11.868;2023-04-09T00:31:08;5.93;;;5.33;;
15393;SDS011;7795;47.986;11.868;2023-04-09T00:33:34;5.00;;;4.60;;
15393;SDS011;7795;47.986;11.868;2023-04-09T00:36:00;4.50;;;4.10;;
15393;SDS011;7795;47.986;11.868;2023-04-09T00:38:27;5.53;;;4.97;;
15393;SDS011;7795;47.986;11.868;2023-04-09T00:40:53;4.93;;;4.50;;
15393;SDS011;7795;47.986;11.868;2023-04-09T00:43:19;5.10;;;4.70;;
15393;SDS011;7795;47.986;11.868;2023-04-09T00:45:45;5.87;;;5.37;;
15393;SDS011;7795;47.986;11.868;2023-04-09T00:48:11;4.77;;;4.37;;
15393;SDS011;7795;47.986;11.868;2023-04-09T00:50:38;5.60;;;5.10;;
15393;SDS011;7795;47.986;11.868;2023-04-09T00:53:04;6.00;;;5.50;;
15393;SDS011;7795;47.986;11.868;2023-04-09T00:55:31;5.23;;;4.77;;
15393;SDS011;7795;47.986;11.868;2023-04-09T00:57:58;5.77;;;5.20;;
15393;SDS011;7795;47.986;11.868;2023-04-09T01:00:25;6.10;;;5.50;;
15393;SDS011;7795;47.986;11.868;2023-04-09T01:02:51;5.80;;;5.30;;
15393;SDS011;7795;47.986;11.868;2023-04-09T01:05:18;5.37;;;4.87;;
15393;SDS011;7795;47.986;11.868;2023-04-09T01:07:48;5.23;;;4.73;;
15393;SDS011;7795;47.986;11.868;2023-04-09T01:10:23;6.00;;;5.50;;
15393;SDS011;7795;47.986;11.868;2023-04-09T01:12:59;5.30;;;4.80;;
15393;SDS011;7795;47.986;11.868;2023-04-09T01:15:33;6.70;;;6.10;;
15393;SDS011;7795;47.986;11.868;2023-04-09T01:18:04;7.20;;;6.53;;
15393;SDS011;7795;47.986;11.868;2023-04-09T01:20:32;7.90;;;7.10;;
15393;SDS011;7795;47.986;11.868;2023-04-09T01:23:06;6.87;;;6.23;;
15393;SDS011;7795;47.986;11.868;2023-04-09T01:25:43;7.17;;;6.47;;
15393;SDS011;7795;47.986;11.868;2023-04-09T01:28:21;6.97;;;6.30;;
15393;SDS011;7795;47.986;11.868;2023-04-09T01:30:51;6.13;;;5.57;;
15393;SDS011;7795;47.986;11.868;2023-04-09T01:33:21;6.80;;;6.10;;
15393;SDS011;7795;47.986;11.868;2023-04-09T01:35:49;6.57;;;5.97;;
15393;SDS011;7795;47.986;11.868;2023-04-09T01:38:17;6.53;;;5.93;;
15393;SDS011;7795;47.986;11.868;2023-04-09T01:40:45;7.23;;;6.53;;
15393;SDS011;7795;47.986;11.868;2023-04-09T01:43:11;7.47;;;6.77;;
15393;SDS011;7795;47.986;11.868;2023-04-09T01:45:39;8.57;;;7.77;;
15393;SDS011;7795;47.986;11.868;2023-04-09T01:48:06;6.37;;;5.77;;
15393;SDS011;7795;47.986;11.868;2023-04-09T01:50:32;7.80;;;7.00;;
15393;SDS011;7795;47.986;11.868;2023-04-09T01:52:59;6.67;;;6.07;;
15393;SDS011;7795;47.986;11.868;2023-04-09T01:55:25;7.93;;;7.13;;
15393;SDS011;7795;47.986;11.868;2023-04-09T01:57:51;8.83;;;7.97;;
15393;SDS011;7795;47.986;11.868;2023-04-09T02:00:17;7.40;;;6.63;;
15393;SDS011;7795;47.986;11.868;2023-04-09T02:02:45;6.30;;;5.70;;
15393;SDS011;7795;47.986;11.868;2023-04-09T02:05:19;6.50;;;5.90;;
15393;SDS011;7795;47.986;11.868;2023-04-09T02:07:49;6.83;;;6.23;;
15393;SDS011;7795;47.986;11.868;2023-04-09T02:10:18;6.67;;;5.90;;
15393;SDS011;7795;47.986;11.868;2023-04-09T02:12:47;6.00;;;5.50;;
15393;SDS011;7795;47.986;11.868;2023-04-09T02:15:15;5.47;;;4.97;;
15393;SDS011;7795;47.986;11.868;2023-04-09T02:17:41;6.60;;;6.00;;
15393;SDS011;7795;47.986;11.868;2023-04-09T02:20:09;5.83;;;5.33;;
15393;SDS011;7795;47.986;11.868;2023-04-09T02:22:36;6.37;;;5.77;;
15393;SDS011;7795;47.986;11.868;2023-04-09T02:25:03;7.10;;;6.40;;
15393;SDS011;7795;47.986;11.868;2023-04-09T02:27:29;6.00;;;5.47;;
15393;SDS011;7795;47.986;11.868;2023-04-09T02:29:55;6.50;;;5.90;;
15393;SDS011;7795;47.986;11.868;2023-04-09T02:32:20;7.73;;;7.03;;
15393;SDS011;7795;47.986;11.868;2023-04-09T02:34:46;14.43;;;13.03;;
15393;SDS011;7795;47.986;11.868;2023-04-09T02:37:13;12.73;;;11.47;;
15393;SDS011;7795;47.986;11.868;2023-04-09T02:39:39;9.67;;;8.67;;
15393;SDS011;7795;47.986;11.868;2023-04-09T02:42:05;10.27;;;9.23;;
15393;SDS011;7795;47.986;11.868;2023-04-09T02:44:31;8.00;;;7.20;;
15393;SDS011;7795;47.986;11.868;2023-04-09T02:46:57;8.83;;;7.87;;
15393;SDS011;7795;47.986;11.868;2023-04-09T02:49:23;7.20;;;6.50;;
15393;SDS011;7795;47.986;11.868;2023-04-09T02:51:49;7.73;;;6.93;;
15393;SDS011;7795;47.986;11.868;2023-04-09T02:54:16;7.60;;;6.83;;
15393;SDS011;7795;47.986;11.868;2023-04-09T02:56:42;8.53;;;7.73;;
15393;SDS011;7795;47.986;11.868;2023-04-09T02:59:07;8.60;;;7.80;;
15393;SDS011;7795;47.986;11.868;2023-04-09T03:01:33;8.23;;;7.43;;
15393;SDS011;7795;47.986;11.868;2023-04-09T03:03:59;8.50;;;7.60;;
15393;SDS011;7795;47.986;11.868;2023-04-09T03:06:25;7.77;;;7.07;;
15393;SDS011;7795;47.986;11.868;2023-04-09T03:08:51;7.37;;;6.57;;
15393;SDS011;7795;47.986;11.868;2023-04-09T03:11:18;6.47;;;5.87;;
15393;SDS011;7795;47.986;11.868;2023-04-09T03:13:44;7.23;;;6.53;;
15393;SDS011;7795;47.986;11.868;2023-04-09T03:16:09;7.20;;;6.50;;
15393;SDS011;7795;47.986;11.868;2023-04-09T03:18:35;6.60;;;5.90;;
15393;SDS011;7795;47.986;11.868;2023-04-09T03:21:03;7.60;;;6.80;;
15393;SDS011;7795;47.986;11.868;2023-04-09T03:23:30;7.03;;;6.33;;
15393;SDS011;7795;47.986;11.868;2023-04-09T03:25:59;7.00;;;6.20;;
15393;SDS011;7795;47.986;11.868;2023-04-09T03:28:27;7.00;;;6.30;;
15393;SDS011;7795;47.986;11.868;2023-04-09T03:30:52;6.63;;;5.97;;
15393;SDS011;7795;47.986;11.868;2023-04-09T03:33:18;8.00;;;7.20;;
15393;SDS011;7795;47.986;11.868;2023-04-09T03:35:44;7.77;;;6.83;;
15393;SDS011;7795;47.986;11.868;2023-04-09T03:38:10;8.83;;;7.93;;
15393;SDS011;7795;47.986;11.868;2023-04-09T03:40:35;8.57;;;7.77;;
15393;SDS011;7795;47.986;11.868;2023-04-09T03:43:01;9.27;;;8.37;;
15393;SDS011;7795;47.986;11.868;2023-04-09T03:45:29;10.07;;;9.07;;
15393;SDS011;7795;47.986;11.868;2023-04-09T03:47:55;10.57;;;9.07;;
15393;SDS011;7795;47.986;11.868;2023-04-09T03:50:21;9.83;;;8.83;;
15393;SDS011;7795;47.986;11.868;2023-04-09T03:52:46;9.73;;;8.70;;
15393;SDS011;7795;47.986;11.868;2023-04-09T03:55:12;9.53;;;8.53;;
15393;SDS011;7795;47.986;11.868;2023-04-09T03:57:38;9.67;;;8.27;;
15393;SDS011;7795;47.986;11.868;2023-04-09T04:00:04;9.90;;;8.37;;
15393;SDS011;7795;47.986;11.868;2023-04-09T04:02:32;9.47;;;8.40;;
15393;SDS011;7795;47.986;11.868;2023-04-09T04:04:57;9.73;;;8.43;;
15393;SDS011;7795;47.986;11.868;2023-04-09T04:07:23;9.37;;;8.03;;
15393;SDS011;7795;47.986;11.868;2023-04-09T04:09:49;11.10;;;9.97;;
15393;SDS011;7795;47.986;11.868;2023-04-09T04:12:15;10.50;;;8.97;;
15393;SDS011;7795;47.986;11.868;2023-04-09T04:14:41;11.60;;;10.40;;
15393;SDS011;7795;47.986;11.868;2023-04-09T04:17:06;9.70;;;8.70;;
15393;SDS011;7795;47.986;11.868;2023-04-09T04:19:34;10.93;;;9.80;;
15393;SDS011;7795;47.986;11.868;2023-04-09T04:21:59;10.23;;;9.17;;
15393;SDS011;7795;47.986;11.868;2023-04-09T04:24:25;9.70;;;8.70;;
15393;SDS011;7795;47.986;11.868;2023-04-09T04:26:51;10.60;;;9.50;;
15393;SDS011;7795;47.986;11.868;2023-04-09T04:29:16;11.30;;;10.07;;
15393;SDS011;7795;47.986;11.868;2023-04-09T04:31:42;10.53;;;9.43;;
15393;SDS011;7795;47.986;11.868;2023-04-09T04:34:08;9.63;;;8.63;;
15393;SDS011;7795;47.986;11.868;2023-04-09T04:36:35;10.33;;;9.33;;
15393;SDS011;7795;47.986;11.868;2023-04-09T04:39:01;12.00;;;10.77;;
15393;SDS011;7795;47.986;11.868;2023-04-09T04:41:27;10.93;;;9.73;;
15393;SDS011;7795;47.986;11.868;2023-04-09T04:43:53;11.33;;;9.80;;
15393;SDS011;7795;47.986;11.868;2023-04-09T04:46:19;10.23;;;9.13;;
15393;SDS011;7795;47.986;11.868;2023-04-09T04:48:45;13.20;;;9.03;;
15393;SDS011;7795;47.986;11.868;2023-04-09T04:51:10;15.60;;;9.37;;
15393;SDS011;7795;47.986;11.868;2023-04-09T04:53:37;15.50;;;10.23;;
15393;SDS011;7795;47.986;11.868;2023-04-09T04:56:03;15.33;;;8.57;;
15393;SDS011;7795;47.986;11.868;2023-04-09T04:58:29;11.03;;;8.37;;
15393;SDS011;7795;47.986;11.868;2023-04-09T05:00:55;13.50;;;9.03;;
15393;SDS011;7795;47.986;11.868;2023-04-09T05:03:21;17.83;;;9.03;;
15393;SDS011;7795;47.986;11.868;2023-04-09T05:05:47;10.57;;;8.07;;
15393;SDS011;7795;47.986;11.868;2023-04-09T05:08:12;12.07;;;8.73;;
15393;SDS011;7795;47.986;11.868;2023-04-09T05:10:40;14.70;;;9.93;;
15393;SDS011;7795;47.986;11.868;2023-04-09T05:13:07;10.90;;;9.30;;
15393;SDS011;7795;47.986;11.868;2023-04-09T05:15:36;10.20;;;8.90;;
15393;SDS011;7795;47.986;11.868;2023-04-09T05:18:02;15.13;;;10.17;;
15393;SDS011;7795;47.986;11.868;2023-04-09T05:20:28;18.00;;;10.43;;
15393;SDS011;7795;47.986;11.868;2023-04-09T05:22:53;34.73;;;11.97;;
15393;SDS011;7795;47.986;11.868;2023-04-09T05:25:19;23.53;;;9.50;;
15393;SDS011;7795;47.986;11.868;2023-04-09T05:27:46;29.67;;;10.37;;
15393;SDS011;7795;47.986;11.868;2023-04-09T05:30:12;31.57;;;10.83;;
15393;SDS011;7795;47.986;11.868;2023-04-09T05:32:37;10.20;;;7.63;;
15393;SDS011;7795;47.986;11.868;2023-04-09T05:35:04;15.90;;;8.93;;
15393;SDS011;7795;47.986;11.868;2023-04-09T05:37:30;27.97;;;9.73;;
15393;SDS011;7795;47.986;11.868;2023-04-09T05:39:56;24.87;;;9.13;;
15393;SDS011;7795;47.986;11.868;2023-04-09T05:42:22;44.40;;;10.97;;
15393;SDS011;7795;47.986;11.868;2023-04-09T05:44:49;20.53;;;9.00;;
15393;SDS011;7795;47.986;11.868;2023-04-09T05:47:14;28.70;;;10.07;;
15393;SDS011;7795;47.986;11.868;2023-04-09T05:49:41;25.60;;;9.77;;
15393;SDS011;7795;47.986;11.868;2023-04-09T05:52:07;14.50;;;7.73;;
15393;SDS011;7795;47.986;11.868;2023-04-09T05:54:33;23.53;;;8.73;;
15393;SDS011;7795;47.986;11.868;2023-04-09T05:56:59;37.73;;;10.20;;
15393;SDS011;7795;47.986;11.868;2023-04-09T05:59:25;20.23;;;8.60;;
15393;SDS011;7795;47.986;11.868;2023-04-09T06:01:52;17.77;;;8.40;;
15393;SDS011;7795;47.986;11.868;2023-04-09T06:04:18;21.37;;;9.43;;
15393;SDS011;7795;47.986;11.868;2023-04-09T06:06:43;33.33;;;10.30;;
15393;SDS011;7795;47.986;11.868;2023-04-09T06:09:09;21.57;;;9.40;;
15393;SDS011;7795;47.986;11.868;2023-04-09T06:11:35;18.13;;;8.43;;
15393;SDS011;7795;47.986;11.868;2023-04-09T06:14:01;19.00;;;8.30;;
15393;SDS011;7795;47.986;11.868;2023-04-09T06:16:26;15.27;;;7.80;;
15393;SDS011;7795;47.986;11.868;2023-04-09T06:18:54;19.67;;;8.43;;
15393;SDS011;7795;47.986;11.868;2023-04-09T06:21:21;25.57;;;9.67;;
15393;SDS011;7795;47.986;11.868;2023-04-09T06:23:46;13.40;;;7.43;;
15393;SDS011;7795;47.986;11.868;2023-04-09T06:26:12;12.70;;;8.07;;
15393;SDS011;7795;47.986;11.868;2023-04-09T06:28:38;13.87;;;8.27;;
15393;SDS011;7795;47.986;11.868;2023-04-09T06:31:04;26.10;;;10.27;;
15393;SDS011;7795;47.986;11.868;2023-04-09T06:33:29;18.03;;;8.07;;
15393;SDS011;7795;47.986;11.868;2023-04-09T06:35:56;22.97;;;9.87;;
15393;SDS011;7795;47.986;11.868;2023-04-09T06:38:22;25.80;;;8.83;;
15393;SDS011;7795;47.986;11.868;2023-04-09T06:40:48;9.43;;;7.90;;
15393;SDS011;7795;47.986;11.868;2023-04-09T06:43:14;13.93;;;7.37;;
15393;SDS011;7795;47.986;11.868;2023-04-09T06:45:40;8.97;;;7.63;;
15393;SDS011;7795;47.986;11.868;2023-04-09T06:48:05;12.80;;;7.90;;
15393;SDS011;7795;47.986;11.868;2023-04-09T06:50:31;7.80;;;7.00;;
15393;SDS011;7795;47.986;11.868;2023-04-09T06:52:58;15.10;;;6.87;;
15393;SDS011;7795;47.986;11.868;2023-04-09T06:55:24;8.50;;;7.17;;
15393;SDS011;7795;47.986;11.868;2023-04-09T06:57:50;10.27;;;7.10;;
15393;SDS011;7795;47.986;11.868;2023-04-09T07:00:16;14.33;;;9.10;;
15393;SDS011;7795;47.986;11.868;2023-04-09T07:02:42;8.47;;;7.43;;
15393;SDS011;7795;47.986;11.868;2023-04-09T07:05:08;9.87;;;8.00;;
15393;SDS011;7795;47.986;11.868;2023-04-09T07:07:34;9.03;;;7.93;;
15393;SDS011;7795;47.986;11.868;2023-04-09T07:10:01;9.23;;;8.10;;
15393;SDS011;7795;47.986;11.868;2023-04-09T07:12:26;10.27;;;8.17;;
15393;SDS011;7795;47.986;11.868;2023-04-09T07:14:55;11.03;;;7.97;;
15393;SDS011;7795;47.986;11.868;2023-04-09T07:17:21;9.77;;;8.00;;
15393;SDS011;7795;47.986;11.868;2023-04-09T07:19:48;9.03;;;8.10;;
15393;SDS011;7795;47.986;11.868;2023-04-09T07:22:15;8.83;;;7.80;;
15393;SDS011;7795;47.986;11.868;2023-04-09T07:24:41;8.60;;;7.70;;
15393;SDS011;7795;47.986;11.868;2023-04-09T07:27:08;7.87;;;7.07;;
15393;SDS011;7795;47.986;11.868;2023-04-09T07:29:34;8.13;;;6.97;;
15393;SDS011;7795;47.986;11.868;2023-04-09T07:32:00;8.07;;;7.20;;
15393;SDS011;7795;47.986;11.868;2023-04-09T07:34:27;8.30;;;7.47;;
15393;SDS011;7795;47.986;11.868;2023-04-09T07:36:53;8.13;;;7.33;;
15393;SDS011;7795;47.986;11.868;2023-04-09T07:39:20;9.77;;;8.10;;
15393;SDS011;7795;47.986;11.868;2023-04-09T07:41:46;9.67;;;8.10;;
15393;SDS011;7795;47.986;11.868;2023-04-09T07:44:14;8.80;;;7.83;;
15393;SDS011;7795;47.986;11.868;2023-04-09T07:46:39;9.00;;;8.10;;
15393;SDS011;7795;47.986;11.868;2023-04-09T07:49:06;8.87;;;7.37;;
15393;SDS011;7795;47.986;11.868;2023-04-09T07:51:32;9.97;;;7.40;;
15393;SDS011;7795;47.986;11.868;2023-04-09T07:53:57;9.23;;;7.10;;
15393;SDS011;7795;47.986;11.868;2023-04-09T07:56:23;9.37;;;7.93;;
15393;SDS011;7795;47.986;11.868;2023-04-09T07:58:49;8.43;;;7.60;;
15393;SDS011;7795;47.986;11.868;2023-04-09T08:01:16;9.33;;;8.37;;
15393;SDS011;7795;47.986;11.868;2023-04-09T08:03:42;8.13;;;7.33;;
15393;SDS011;7795;47.986;11.868;2023-04-09T08:06:08;8.33;;;7.53;;
15393;SDS011;7795;47.986;11.868;2023-04-09T08:08:33;8.20;;;7.10;;
15393;SDS011;7795;47.986;11.868;2023-04-09T08:11:00;8.40;;;7.47;;
15393;SDS011;7795;47.986;11.868;2023-04-09T08:13:25;9.43;;;8.43;;
15393;SDS011;7795;47.986;11.868;2023-04-09T08:15:51;8.67;;;7.80;;
15393;SDS011;7795;47.986;11.868;2023-04-09T08:18:19;8.67;;;7.77;;
15393;SDS011;7795;47.986;11.868;2023-04-09T08:20:45;9.33;;;8.33;;
15393;SDS011;7795;47.986;11.868;2023-04-09T08:23:10;10.07;;;9.07;;
15393;SDS011;7795;47.986;11.868;2023-04-09T08:25:36;9.40;;;8.40;;
15393;SDS011;7795;47.986;11.868;2023-04-09T08:28:02;9.10;;;8.07;;
15393;SDS011;7795;47.986;11.868;2023-04-09T08:30:28;10.10;;;9.10;;
15393;SDS011;7795;47.986;11.868;2023-04-09T08:32:54;9.67;;;8.53;;
15393;SDS011;7795;47.986;11.868;2023-04-09T08:35:22;9.40;;;8.07;;
15393;SDS011;7795;47.986;11.868;2023-04-09T08:37:47;9.83;;;8.83;;
15393;SDS011;7795;47.986;11.868;2023-04-09T08:40:13;10.17;;;9.10;;
15393;SDS011;7795;47.986;11.868;2023-04-09T08:42:40;11.67;;;9.10;;
15393;SDS011;7795;47.986;11.868;2023-04-09T08:45:10;10.47;;;9.40;;
15393;SDS011;7795;47.986;11.868;2023-04-09T08:47:37;10.27;;;9.27;;
15393;SDS011;7795;47.986;11.868;2023-04-09T08:50:05;9.73;;;8.73;;
15393;SDS011;7795;47.986;11.868;2023-04-09T08:52:33;8.73;;;7.83;;
15393;SDS011;7795;47.986;11.868;2023-04-09T08:54:59;10.07;;;9.00;;
15393;SDS011;7795;47.986;11.868;2023-04-09T08:57:25;9.40;;;8.50;;
15393;SDS011;7795;47.986;11.868;2023-04-09T08:59:51;10.50;;;9.40;;
15393;SDS011;7795;47.986;11.868;2023-04-09T09:02:17;11.00;;;9.73;;
15393;SDS011;7795;47.986;11.868;2023-04-09T09:04:43;10.37;;;9.37;;
15393;SDS011;7795;47.986;11.868;2023-04-09T09:07:10;10.70;;;9.60;;
15393;SDS011;7795;47.986;11.868;2023-04-09T09:09:49;10.53;;;9.53;;
15393;SDS011;7795;47.986;11.868;2023-04-09T09:12:28;10.30;;;9.30;;
15393;SDS011;7795;47.986;11.868;2023-04-09T09:14:58;9.63;;;8.63;;
15393;SDS011;7795;47.986;11.868;2023-04-09T09:17:24;11.20;;;9.70;;
15393;SDS011;7795;47.986;11.868;2023-04-09T09:19:50;9.83;;;8.83;;
15393;SDS011;7795;47.986;11.868;2023-04-09T09:22:16;10.43;;;9.40;;
15393;SDS011;7795;47.986;11.868;2023-04-09T09:24:45;10.10;;;9.10;;
15393;SDS011;7795;47.986;11.868;2023-04-09T09:27:14;10.93;;;9.83;;
15393;SDS011;7795;47.986;11.868;2023-04-09T09:29:56;10.30;;;9.30;;
15393;SDS011;7795;47.986;11.868;2023-04-09T09:32:22;10.73;;;9.63;;
15393;SDS011;7795;47.986;11.868;2023-04-09T09:34:56;11.40;;;10.23;;
15393;SDS011;7795;47.986;11.868;2023-04-09T09:37:26;10.30;;;9.30;;
15393;SDS011;7795;47.986;11.868;2023-04-09T09:39:55;12.60;;;9.60;;
15393;SDS011;7795;47.986;11.868;2023-04-09T09:42:22;10.70;;;9.67;;
15393;SDS011;7795;47.986;11.868;2023-04-09T09:44:49;10.27;;;9.27;;
15393;SDS011;7795;47.986;11.868;2023-04-09T09:47:15;11.77;;;9.00;;
15393;SDS011;7795;47.986;11.868;2023-04-09T09:49:43;11.50;;;10.30;;
15393;SDS011;7795;47.986;11.868;2023-04-09T09:52:09;10.20;;;9.20;;
15393;SDS011;7795;47.986;11.868;2023-04-09T09:54:37;10.23;;;9.23;;
15393;SDS011;7795;47.986;11.868;2023-04-09T09:57:06;10.93;;;9.83;;
15393;SDS011;7795;47.986;11.868;2023-04-09T09:59:36;9.93;;;8.93;;
15393;SDS011;7795;47.986;11.868;2023-04-09T10:02:06;11.47;;;10.37;;
15393;SDS011;7795;47.986;11.868;2023-04-09T10:04:36;11.00;;;9.90;;
15393;SDS011;7795;47.986;11.868;2023-04-09T10:07:02;11.00;;;9.80;;
15393;SDS011;7795;47.986;11.868;2023-04-09T10:09:29;10.80;;;9.70;;
15393;SDS011;7795;47.986;11.868;2023-04-09T10:11:56;10.90;;;9.90;;
15393;SDS011;7795;47.986;11.868;2023-04-09T10:14:24;10.87;;;9.77;;
15393;SDS011;7795;47.986;11.868;2023-04-09T10:16:54;10.67;;;9.67;;
15393;SDS011;7795;47.986;11.868;2023-04-09T10:19:20;10.23;;;9.23;;
15393;SDS011;7795;47.986;11.868;2023-04-09T10:21:46;10.90;;;9.80;;
15393;SDS011;7795;47.986;11.868;2023-04-09T10:24:18;11.47;;;10.30;;
15393;SDS011;7795;47.986;11.868;2023-04-09T10:26:44;11.17;;;10.07;;
15393;SDS011;7795;47.986;11.868;2023-04-09T10:29:11;10.77;;;9.67;;
15393;SDS011;7795;47.986;11.868;2023-04-09T10:31:50;10.87;;;9.87;;
15393;SDS011;7795;47.986;11.868;2023-04-09T10:34:19;10.10;;;9.10;;
15393;SDS011;7795;47.986;11.868;2023-04-09T10:36:48;11.80;;;10.60;;
15393;SDS011;7795;47.986;11.868;2023-04-09T10:39:17;11.50;;;10.30;;
15393;SDS011;7795;47.986;11.868;2023-04-09T10:41:42;11.27;;;10.17;;
15393;SDS011;7795;47.986;11.868;2023-04-09T10:44:20;11.20;;;10.10;;
15393;SDS011;7795;47.986;11.868;2023-04-09T10:46:47;10.67;;;9.57;;
15393;SDS011;7795;47.986;11.868;2023-04-09T10:49:14;10.93;;;9.83;;
15393;SDS011;7795;47.986;11.868;2023-04-09T10:51:46;10.67;;;9.57;;
15393;SDS011;7795;47.986;11.868;2023-04-09T10:57:10;11.30;;;10.10;;
15393;SDS011;7795;47.986;11.868;2023-04-09T10:59:41;11.70;;;10.50;;
15393;SDS011;7795;47.986;11.868;2023-04-09T11:05:17;12.03;;;10.87;;
15393;SDS011;7795;47.986;11.868;2023-04-09T11:07:48;11.67;;;10.47;;
15393;SDS011;7795;47.986;11.868;2023-04-09T11:10:18;12.20;;;10.90;;
15393;SDS011;7795;47.986;11.868;2023-04-09T11:12:45;10.63;;;9.53;;
15393;SDS011;7795;47.986;11.868;2023-04-09T11:15:15;10.57;;;9.47;;
15393;SDS011;7795;47.986;11.868;2023-04-09T11:17:42;10.63;;;9.53;;
15393;SDS011;7795;47.986;11.868;2023-04-09T11:20:09;11.00;;;10.00;;
15393;SDS011;7795;47.986;11.868;2023-04-09T11:22:35;10.70;;;9.60;;
15393;SDS011;7795;47.986;11.868;2023-04-09T11:25:02;11.17;;;10.07;;
15393;SDS011;7795;47.986;11.868;2023-04-09T11:27:28;10.97;;;9.87;;
15393;SDS011;7795;47.986;11.868;2023-04-09T11:29:54;11.53;;;10.33;;
15393;SDS011;7795;47.986;11.868;2023-04-09T11:32:20;10.17;;;9.17;;
15393;SDS011;7795;47.986;11.868;2023-04-09T11:34:46;10.93;;;9.83;;
15393;SDS011;7795;47.986;11.868;2023-04-09T11:37:13;12.10;;;10.60;;
15393;SDS011;7795;47.986;11.868;2023-04-09T11:39:42;11.70;;;10.50;;
15393;SDS011;7795;47.986;11.868;2023-04-09T11:42:13;12.80;;;9.90;;
15393;SDS011;7795;47.986;11.868;2023-04-09T11:44:39;11.30;;;10.10;;
15393;SDS011;7795;47.986;11.868;2023-04-09T11:47:06;11.30;;;10.10;;
15393;SDS011;7795;47.986;11.868;2023-04-09T11:49:33;11.40;;;10.27;;
15393;SDS011;7795;47.986;11.868;2023-04-09T11:51:59;11.30;;;10.20;;
15393;SDS011;7795;47.986;11.868;2023-04-09T11:54:30;11.80;;;10.60;;
15393;SDS011;7795;47.986;11.868;2023-04-09T11:56:57;11.43;;;10.33;;
15393;SDS011;7795;47.986;11.868;2023-04-09T11:59:24;11.47;;;10.33;;
15393;SDS011;7795;47.986;11.868;2023-04-09T12:01:51;11.03;;;9.67;;
15393;SDS011;7795;47.986;11.868;2023-04-09T12:04:18;10.60;;;9.47;;
15393;SDS011;7795;47.986;11.868;2023-04-09T12:06:45;10.37;;;9.27;;
15393;SDS011;7795;47.986;11.868;2023-04-09T12:09:10;10.50;;;9.40;;
15393;SDS011;7795;47.986;11.868;2023-04-09T12:11:38;11.20;;;10.07;;
15393;SDS011;7795;47.986;11.868;2023-04-09T12:14:10;10.33;;;9.27;;
15393;SDS011;7795;47.986;11.868;2023-04-09T12:16:38;11.87;;;10.67;;
15393;SDS011;7795;47.986;11.868;2023-04-09T12:19:11;9.83;;;8.83;;
15393;SDS011;7795;47.986;11.868;2023-04-09T12:21:43;10.00;;;9.00;;
15393;SDS011;7795;47.986;11.868;2023-04-09T12:24:10;10.03;;;9.03;;
15393;SDS011;7795;47.986;11.868;2023-04-09T12:26:36;10.53;;;9.43;;
15393;SDS011;7795;47.986;11.868;2023-04-09T12:29:02;10.63;;;9.53;;
15393;SDS011;7795;47.986;11.868;2023-04-09T12:31:27;10.63;;;9.53;;
15393;SDS011;7795;47.986;11.868;2023-04-09T12:33:54;11.87;;;10.67;;
15393;SDS011;7795;47.986;11.868;2023-04-09T12:36:20;10.93;;;9.83;;
15393;SDS011;7795;47.986;11.868;2023-04-09T12:38:47;10.53;;;9.43;;
15393;SDS011;7795;47.986;11.868;2023-04-09T12:41:13;11.13;;;10.03;;
15393;SDS011;7795;47.986;11.868;2023-04-09T12:43:40;10.90;;;9.80;;
15393;SDS011;7795;47.986;11.868;2023-04-09T12:46:07;11.30;;;10.20;;
15393;SDS011;7795;47.986;11.868;2023-04-09T12:48:34;11.47;;;10.27;;
15393;SDS011;7795;47.986;11.868;2023-04-09T12:51:01;11.13;;;10.03;;
15393;SDS011;7795;47.986;11.868;2023-04-09T12:53:27;10.87;;;9.70;;
15393;SDS011;7795;47.986;11.868;2023-04-09T12:55:53;10.73;;;9.23;;
15393;SDS011;7795;47.986;11.868;2023-04-09T12:58:18;10.83;;;9.73;;
15393;SDS011;7795;47.986;11.868;2023-04-09T13:00:44;11.30;;;10.10;;
15393;SDS011;7795;47.986;11.868;2023-04-09T13:03:10;10.23;;;9.20;;
15393;SDS011;7795;47.986;11.868;2023-04-09T13:05:36;10.53;;;9.53;;
15393;SDS011;7795;47.986;11.868;2023-04-09T13:08:03;11.33;;;10.23;;
15393;SDS011;7795;47.986;11.868;2023-04-09T13:10:29;10.63;;;9.53;;
15393;SDS011;7795;47.986;11.868;2023-04-09T13:12:55;11.23;;;10.13;;
15393;SDS011;7795;47.986;11.868;2023-04-09T13:15:21;10.40;;;9.40;;
15393;SDS011;7795;47.986;11.868;2023-04-09T13:17:47;10.03;;;9.03;;
15393;SDS011;7795;47.986;11.868;2023-04-09T13:20:13;10.30;;;9.30;;
15393;SDS011;7795;47.986;11.868;2023-04-09T13:22:39;10.97;;;9.87;;
15393;SDS011;7795;47.986;11.868;2023-04-09T13:25:06;10.13;;;9.07;;
15393;SDS011;7795;47.986;11.868;2023-04-09T13:27:33;11.00;;;9.90;;
15393;SDS011;7795;47.986;11.868;2023-04-09T13:29:58;10.97;;;9.83;;
15393;SDS011;7795;47.986;11.868;2023-04-09T13:32:24;11.07;;;9.87;;
15393;SDS011;7795;47.986;11.868;2023-04-09T13:34:50;10.83;;;9.73;;
15393;SDS011;7795;47.986;11.868;2023-04-09T13:37:17;9.70;;;8.70;;
15393;SDS011;7795;47.986;11.868;2023-04-09T13:39:43;10.97;;;9.37;;
15393;SDS011;7795;47.986;11.868;2023-04-09T13:42:10;11.10;;;10.00;;
15393;SDS011;7795;47.986;11.868;2023-04-09T13:44:36;10.10;;;9.10;;
15393;SDS011;7795;47.986;11.868;2023-04-09T13:47:04;10.80;;;9.70;;
15393;SDS011;7795;47.986;11.868;2023-04-09T13:49:29;9.30;;;8.30;;
15393;SDS011;7795;47.986;11.868;2023-04-09T13:51:55;11.40;;;10.20;;
15393;SDS011;7795;47.986;11.868;2023-04-09T13:54:21;9.97;;;8.83;;
15393;SDS011;7795;47.986;11.868;2023-04-09T13:56:47;10.50;;;9.40;;
15393;SDS011;7795;47.986;11.868;2023-04-09T13:59:16;9.93;;;8.93;;
15393;SDS011;7795;47.986;11.868;2023-04-09T14:01:42;9.67;;;8.67;;
15393;SDS011;7795;47.986;11.868;2023-04-09T14:04:07;10.13;;;8.93;;
15393;SDS011;7795;47.986;11.868;2023-04-09T14:06:33;9.27;;;8.37;;
15393;SDS011;7795;47.986;11.868;2023-04-09T14:08:59;9.20;;;8.27;;
15393;SDS011;7795;47.986;11.868;2023-04-09T14:11:25;9.37;;;8.37;;
15393;SDS011;7795;47.986;11.868;2023-04-09T14:13:51;8.80;;;7.93;;
15393;SDS011;7795;47.986;11.868;2023-04-09T14:16:18;9.50;;;7.63;;
15393;SDS011;7795;47.986;11.868;2023-04-09T14:18:43;8.60;;;7.70;;
15393;SDS011;7795;47.986;11.868;2023-04-09T14:21:09;9.53;;;8.40;;
15393;SDS011;7795;47.986;11.868;2023-04-09T14:23:35;9.37;;;8.47;;
15393;SDS011;7795;47.986;11.868;2023-04-09T14:26:01;9.17;;;8.27;;
15393;SDS011;7795;47.986;11.868;2023-04-09T14:28:28;9.40;;;8.47;;
15393;SDS011;7795;47.986;11.868;2023-04-09T14:30:54;9.03;;;8.03;;
15393;SDS011;7795;47.986;11.868;2023-04-09T14:33:21;8.80;;;7.90;;
15393;SDS011;7795;47.986;11.868;2023-04-09T14:35:46;9.30;;;8.40;;
15393;SDS011;7795;47.986;11.868;2023-04-09T14:38:12;11.20;;;6.97;;
15393;SDS011;7795;47.986;11.868;2023-04-09T14:40:38;8.07;;;7.27;;
15393;SDS011;7795;47.986;11.868;2023-04-09T14:43:04;8.57;;;7.67;;